createdAt,value
2023-02-03T00:00:38.845Z,524
2023-02-03T00:01:40.839Z,523.4
2023-02-03T00:02:42.888Z,523
2023-02-03T00:03:44.808Z,522.4
2023-02-03T00:04:46.654Z,522.5
2023-02-03T00:05:48.610Z,522.5
2023-02-03T00:06:50.464Z,522
2023-02-03T00:07:52.338Z,522.1
2023-02-03T00:08:54.163Z,522.4
2023-02-03T00:09:56.007Z,522
2023-02-03T00:10:57.878Z,522.6
2023-02-03T00:11:59.711Z,522.5
2023-02-03T00:13:01.556Z,522
2023-02-03T00:14:03.406Z,521.9
2023-02-03T00:15:05.360Z,521.7
2023-02-03T00:16:07.538Z,522.2
2023-02-03T00:17:09.479Z,522.2
2023-02-03T00:18:11.349Z,521.6
2023-02-03T00:19:13.201Z,521.2
2023-02-03T00:20:14.945Z,521.3
2023-02-03T00:21:16.767Z,520.9
2023-02-03T00:22:18.718Z,521
2023-02-03T00:23:20.672Z,520.7
2023-02-03T00:24:22.525Z,521.2
2023-02-03T00:25:24.270Z,521.3
2023-02-03T00:26:26.151Z,521.3
2023-02-03T00:27:27.979Z,521.1
2023-02-03T00:28:29.825Z,520.8
2023-02-03T00:29:31.672Z,520.9
2023-02-03T00:30:33.516Z,521
2023-02-03T00:31:36.378Z,520.6
2023-02-03T00:32:38.513Z,520.5
2023-02-03T00:33:40.529Z,520.1
2023-02-03T00:34:42.339Z,520.1
2023-02-03T00:35:44.202Z,519.9
2023-02-03T00:36:46.054Z,520.2
2023-02-03T00:37:47.807Z,520.5
2023-02-03T00:38:49.651Z,520
2023-02-03T00:39:51.507Z,520
2023-02-03T00:40:53.362Z,520
2023-02-03T00:41:55.303Z,519.4
2023-02-03T00:42:57.160Z,519.2
2023-02-03T00:43:59.001Z,519.3
2023-02-03T00:45:00.852Z,519
2023-02-03T00:46:03.086Z,519.3
2023-02-03T00:47:04.963Z,518.8
2023-02-03T00:48:06.846Z,518.9
2023-02-03T00:49:08.687Z,518.9
2023-02-03T00:50:10.516Z,518.5
2023-02-03T00:51:12.363Z,518
2023-02-03T00:52:14.212Z,518
2023-02-03T00:53:15.901Z,517.7
2023-02-03T00:54:17.711Z,518.2
2023-02-03T00:55:19.680Z,518.4
2023-02-03T00:56:21.479Z,518.6
2023-02-03T00:57:23.476Z,518.7
2023-02-03T00:58:25.309Z,518.4
2023-02-03T00:59:27.059Z,518.5
2023-02-03T01:00:29.525Z,518
2023-02-03T01:01:31.709Z,518
2023-02-03T01:02:33.795Z,517.7
2023-02-03T01:03:35.537Z,517.5
2023-02-03T01:04:37.358Z,517.6
2023-02-03T01:05:39.290Z,517.8
2023-02-03T01:06:44.059Z,518.1
2023-02-03T01:07:45.751Z,517.4
2023-02-03T01:08:47.710Z,517.7
2023-02-03T01:09:49.557Z,517.9
2023-02-03T01:10:51.507Z,517.9
2023-02-03T01:11:53.356Z,517.4
2023-02-03T01:12:55.244Z,517.1
2023-02-03T01:13:57.129Z,517.1
2023-02-03T01:14:59.010Z,516.9
2023-02-03T01:16:00.862Z,517.1
2023-02-03T01:17:03.220Z,517.4
2023-02-03T01:18:05.177Z,517.1
2023-02-03T01:19:07.021Z,517.3
2023-02-03T01:20:08.869Z,517.3
2023-02-03T01:21:10.828Z,516.9
2023-02-03T01:22:12.694Z,517.3
2023-02-03T01:23:14.527Z,517.3
2023-02-03T01:24:16.482Z,517
2023-02-03T01:25:18.331Z,517.1
2023-02-03T01:26:20.175Z,517.1
2023-02-03T01:27:22.028Z,517.5
2023-02-03T01:28:23.876Z,517.3
2023-02-03T01:29:25.727Z,518.1
2023-02-03T01:30:29.075Z,518
2023-02-03T01:31:32.128Z,517.8
2023-02-03T01:32:33.947Z,518.1
2023-02-03T01:33:35.898Z,518.1
2023-02-03T01:34:37.641Z,518.2
2023-02-03T01:35:39.520Z,518.2
2023-02-03T01:36:41.447Z,517.8
2023-02-03T01:37:43.292Z,517.4
2023-02-03T01:38:45.297Z,517.9
2023-02-03T01:39:47.199Z,517.5
2023-02-03T01:40:49.225Z,517.8
2023-02-03T01:41:51.101Z,517.4
2023-02-03T01:42:52.902Z,517.7
2023-02-03T01:43:54.800Z,517.2
2023-02-03T01:44:56.653Z,517.3
2023-02-03T01:45:58.667Z,516.7
2023-02-03T01:47:00.554Z,516.8
2023-02-03T01:48:02.411Z,516.6
2023-02-03T01:49:04.268Z,516.6
2023-02-03T01:50:06.002Z,516.1
2023-02-03T01:51:07.888Z,516.7
2023-02-03T01:52:09.809Z,516.3
2023-02-03T01:53:11.657Z,516.1
2023-02-03T01:54:13.511Z,516.5
2023-02-03T01:55:15.370Z,516.3
2023-02-03T01:56:17.318Z,516.4
2023-02-03T01:57:19.163Z,516.4
2023-02-03T01:58:21.121Z,516.2
2023-02-03T01:59:22.969Z,516.5
2023-02-03T02:00:26.359Z,516.4
2023-02-03T02:01:28.565Z,516.1
2023-02-03T02:02:30.881Z,516
2023-02-03T02:03:32.818Z,516.4
2023-02-03T02:04:34.693Z,516.3
2023-02-03T02:05:36.533Z,515.9
2023-02-03T02:06:38.393Z,516.3
2023-02-03T02:07:40.118Z,516.1
2023-02-03T02:08:44.740Z,516.3
2023-02-03T02:09:46.690Z,515.9
2023-02-03T02:10:48.533Z,516.5
2023-02-03T02:11:50.385Z,516.1
2023-02-03T02:12:52.241Z,516
2023-02-03T02:13:54.187Z,515.9
2023-02-03T02:14:56.138Z,516.1
2023-02-03T02:15:58.330Z,515.9
2023-02-03T02:17:00.146Z,516.3
2023-02-03T02:18:01.763Z,515.8
2023-02-03T02:19:03.744Z,515.4
2023-02-03T02:20:05.592Z,516
2023-02-03T02:21:07.450Z,515.5
2023-02-03T02:22:09.341Z,515.8
2023-02-03T02:23:11.163Z,516.4
2023-02-03T02:24:12.991Z,516.2
2023-02-03T02:25:14.981Z,516.4
2023-02-03T02:26:16.796Z,516.1
2023-02-03T02:27:18.647Z,516
2023-02-03T02:28:20.627Z,516
2023-02-03T02:29:22.450Z,515.6
2023-02-03T02:30:25.896Z,515.8
2023-02-03T02:31:28.539Z,515.8
2023-02-03T02:32:30.356Z,516.1
2023-02-03T02:33:32.206Z,515.8
2023-02-03T02:34:34.058Z,515.3
2023-02-03T02:35:36.106Z,515.2
2023-02-03T02:36:38.069Z,515.5
2023-02-03T02:37:39.937Z,515
2023-02-03T02:38:41.773Z,514.9
2023-02-03T02:39:43.522Z,515.1
2023-02-03T02:40:45.363Z,514.9
2023-02-03T02:41:47.320Z,514.9
2023-02-03T02:42:49.164Z,514.8
2023-02-03T02:43:50.909Z,514.7
2023-02-03T02:44:52.688Z,514.6
2023-02-03T02:45:54.858Z,514.8
2023-02-03T02:46:56.665Z,515.4
2023-02-03T02:47:58.420Z,515.7
2023-02-03T02:49:00.262Z,515.9
2023-02-03T02:50:02.221Z,516
2023-02-03T02:51:04.063Z,516.4
2023-02-03T02:52:06.013Z,517
2023-02-03T02:53:07.802Z,516.2
2023-02-03T02:54:09.613Z,515.9
2023-02-03T02:55:11.464Z,516.2
2023-02-03T02:56:16.160Z,516.3
2023-02-03T02:57:17.929Z,516.1
2023-02-03T02:58:19.780Z,516.1
2023-02-03T02:59:21.636Z,515.9
2023-02-03T03:00:23.664Z,515.7
2023-02-03T03:01:25.890Z,515.1
2023-02-03T03:02:27.702Z,514.9
2023-02-03T03:03:29.753Z,515.5
2023-02-03T03:04:31.879Z,514.8
2023-02-03T03:05:33.870Z,515
2023-02-03T03:06:36.074Z,514.4
2023-02-03T03:07:37.968Z,514
2023-02-03T03:08:39.876Z,513.9
2023-02-03T03:09:41.591Z,513.8
2023-02-03T03:10:43.348Z,513.9
2023-02-03T03:11:45.164Z,513.9
2023-02-03T03:12:47.022Z,513.8
2023-02-03T03:13:48.864Z,513.1
2023-02-03T03:14:50.715Z,512.9
2023-02-03T03:15:52.807Z,513.3
2023-02-03T03:16:54.823Z,512.9
2023-02-03T03:17:56.676Z,513.3
2023-02-03T03:18:58.527Z,513.2
2023-02-03T03:20:00.384Z,513.4
2023-02-03T03:21:02.233Z,513.3
2023-02-03T03:22:04.076Z,513.3
2023-02-03T03:23:05.859Z,512.4
2023-02-03T03:24:07.699Z,512.3
2023-02-03T03:25:09.632Z,511.8
2023-02-03T03:26:11.474Z,512.2
2023-02-03T03:27:13.322Z,511.9
2023-02-03T03:28:15.608Z,512.1
2023-02-03T03:29:17.432Z,512
2023-02-03T03:30:19.283Z,511.8
2023-02-03T03:31:21.750Z,511.4
2023-02-03T03:32:23.493Z,511.5
2023-02-03T03:33:25.352Z,511.3
2023-02-03T03:34:27.202Z,511.3
2023-02-03T03:35:29.057Z,511.2
2023-02-03T03:36:30.792Z,511.2
2023-02-03T03:37:32.567Z,511.2
2023-02-03T03:38:34.492Z,511.1
2023-02-03T03:39:36.366Z,510.8
2023-02-03T03:40:38.192Z,511.2
2023-02-03T03:41:42.725Z,510.4
2023-02-03T03:42:44.553Z,510.2
2023-02-03T03:43:46.511Z,509.9
2023-02-03T03:44:48.352Z,510.1
2023-02-03T03:45:50.212Z,510.2
2023-02-03T03:46:52.159Z,509.8
2023-02-03T03:47:54.107Z,509.6
2023-02-03T03:48:56.059Z,509.8
2023-02-03T03:49:57.919Z,509.5
2023-02-03T03:50:59.761Z,509.5
2023-02-03T03:52:01.713Z,509.8
2023-02-03T03:53:05.980Z,509.5
2023-02-03T03:54:07.773Z,509.5
2023-02-03T03:55:09.643Z,509.9
2023-02-03T03:56:11.471Z,509.5
2023-02-03T03:57:13.307Z,509.2
2023-02-03T03:58:15.171Z,509.2
2023-02-03T03:59:17.015Z,509.2
2023-02-03T04:00:18.869Z,508.7
2023-02-03T04:01:21.010Z,508.7
2023-02-03T04:02:23.113Z,508.5
2023-02-03T04:03:25.143Z,508.1
2023-02-03T04:04:26.993Z,508.3
2023-02-03T04:05:28.837Z,508.4
2023-02-03T04:06:30.708Z,508.3
2023-02-03T04:07:32.531Z,508.3
2023-02-03T04:08:34.396Z,508.5
2023-02-03T04:09:36.234Z,508.2
2023-02-03T04:10:38.107Z,508
2023-02-03T04:11:39.937Z,507.8
2023-02-03T04:12:41.786Z,508
2023-02-03T04:13:43.843Z,508.2
2023-02-03T04:14:45.689Z,507.5
2023-02-03T04:15:47.674Z,507.5
2023-02-03T04:16:49.503Z,507.4
2023-02-03T04:17:51.445Z,507.3
2023-02-03T04:18:53.296Z,506.9
2023-02-03T04:19:55.051Z,507.2
2023-02-03T04:20:56.992Z,507.1
2023-02-03T04:21:58.951Z,507.3
2023-02-03T04:23:00.896Z,507.2
2023-02-03T04:24:02.750Z,507
2023-02-03T04:25:04.529Z,507.2
2023-02-03T04:26:06.372Z,506.9
2023-02-03T04:27:08.311Z,506.8
2023-02-03T04:28:10.468Z,506.6
2023-02-03T04:29:12.302Z,506.7
2023-02-03T04:30:14.059Z,506.7
2023-02-03T04:31:16.768Z,506.9
2023-02-03T04:32:18.676Z,506.5
2023-02-03T04:33:20.528Z,506.6
2023-02-03T04:34:22.375Z,507
2023-02-03T04:35:24.334Z,507
2023-02-03T04:36:26.191Z,506.8
2023-02-03T04:37:28.145Z,506.7
2023-02-03T04:38:29.905Z,506.8
2023-02-03T04:39:31.813Z,506.2
2023-02-03T04:40:35.731Z,506.1
2023-02-03T04:41:37.604Z,506
2023-02-03T04:42:39.528Z,505.4
2023-02-03T04:43:41.381Z,505.8
2023-02-03T04:44:43.230Z,505.3
2023-02-03T04:45:45.232Z,505.4
2023-02-03T04:46:47.039Z,505.8
2023-02-03T04:47:48.676Z,504.7
2023-02-03T04:48:50.477Z,504.2
2023-02-03T04:49:52.377Z,504.7
2023-02-03T04:50:54.129Z,504.6
2023-02-03T04:51:56.082Z,504.1
2023-02-03T04:52:57.927Z,504.1
2023-02-03T04:53:59.775Z,503.7
2023-02-03T04:55:01.525Z,503.6
2023-02-03T04:56:03.489Z,503.7
2023-02-03T04:57:05.453Z,504
2023-02-03T04:58:07.278Z,503.7
2023-02-03T04:59:11.825Z,503.5
2023-02-03T05:00:13.547Z,503.5
2023-02-03T05:01:15.803Z,503.4
2023-02-03T05:02:17.629Z,503.5
2023-02-03T05:03:19.719Z,503
2023-02-03T05:04:21.553Z,502.9
2023-02-03T05:05:23.508Z,503.3
2023-02-03T05:06:25.258Z,503.1
2023-02-03T05:07:27.003Z,502.6
2023-02-03T05:08:28.954Z,502.8
2023-02-03T05:09:30.789Z,502.3
2023-02-03T05:10:33.479Z,502.7
2023-02-03T05:11:35.326Z,501.5
2023-02-03T05:12:37.299Z,501.9
2023-02-03T05:13:39.229Z,502.3
2023-02-03T05:14:40.846Z,502.1
2023-02-03T05:15:42.620Z,501.9
2023-02-03T05:16:46.357Z,501.9
2023-02-03T05:17:48.267Z,501.9
2023-02-03T05:18:50.119Z,501.7
2023-02-03T05:19:51.978Z,501.5
2023-02-03T05:20:53.816Z,501.5
2023-02-03T05:21:55.573Z,501.5
2023-02-03T05:22:57.420Z,501.7
2023-02-03T05:23:59.165Z,500.7
2023-02-03T05:25:01.121Z,500.7
2023-02-03T05:26:02.768Z,500.5
2023-02-03T05:27:04.615Z,500.8
2023-02-03T05:28:06.873Z,500.8
2023-02-03T05:29:08.718Z,500.5
2023-02-03T05:30:10.679Z,501
2023-02-03T05:31:12.936Z,500.9
2023-02-03T05:32:14.771Z,501.5
2023-02-03T05:33:16.735Z,500.9
2023-02-03T05:34:18.796Z,501.8
2023-02-03T05:35:21.055Z,501.7
2023-02-03T05:36:22.903Z,501.2
2023-02-03T05:37:24.856Z,501.7
2023-02-03T05:38:26.704Z,501.2
2023-02-03T05:39:28.486Z,501.3
2023-02-03T05:40:30.912Z,501
2023-02-03T05:41:32.686Z,501.3
2023-02-03T05:42:35.034Z,501.7
2023-02-03T05:43:37.024Z,501.2
2023-02-03T05:44:38.823Z,501.1
2023-02-03T05:45:41.070Z,501
2023-02-03T05:46:42.942Z,500.8
2023-02-03T05:47:44.787Z,500.6
2023-02-03T05:48:46.742Z,500.7
2023-02-03T05:49:48.527Z,500.2
2023-02-03T05:50:50.231Z,500.6
2023-02-03T05:51:52.195Z,500.4
2023-02-03T05:52:54.148Z,500.5
2023-02-03T05:53:56.102Z,501.2
2023-02-03T05:54:57.940Z,500.9
2023-02-03T05:55:59.787Z,501
2023-02-03T05:57:01.698Z,501.2
2023-02-03T05:58:03.497Z,501.3
2023-02-03T05:59:05.477Z,501.1
2023-02-03T06:00:07.286Z,501.2
2023-02-03T06:01:09.241Z,500.8
2023-02-03T06:02:11.132Z,501.1
2023-02-03T06:03:13.214Z,500.6
2023-02-03T06:04:15.449Z,500.4
2023-02-03T06:05:17.194Z,500.2
2023-02-03T06:06:19.032Z,500.1
2023-02-03T06:07:20.957Z,499.9
2023-02-03T06:08:22.809Z,500.1
2023-02-03T06:09:24.670Z,499.8
2023-02-03T06:10:28.018Z,500
2023-02-03T06:11:30.029Z,499.9
2023-02-03T06:12:31.849Z,499.6
2023-02-03T06:13:33.702Z,499.5
2023-02-03T06:14:35.671Z,499.3
2023-02-03T06:15:37.497Z,499.6
2023-02-03T06:16:39.697Z,499.7
2023-02-03T06:17:41.623Z,499.1
2023-02-03T06:18:43.717Z,499.2
2023-02-03T06:19:45.557Z,499.2
2023-02-03T06:20:47.373Z,499.2
2023-02-03T06:21:49.191Z,499.1
2023-02-03T06:22:51.063Z,499
2023-02-03T06:23:52.983Z,498.7
2023-02-03T06:24:54.868Z,498.4
2023-02-03T06:25:56.715Z,498.5
2023-02-03T06:26:58.574Z,498.5
2023-02-03T06:28:01.028Z,498.4
2023-02-03T06:29:02.885Z,498.3
2023-02-03T06:30:04.833Z,498.5
2023-02-03T06:31:07.293Z,498.5
2023-02-03T06:32:09.248Z,497.8
2023-02-03T06:33:10.994Z,497.7
2023-02-03T06:34:12.849Z,497.9
2023-02-03T06:35:14.807Z,498.5
2023-02-03T06:36:16.650Z,498.1
2023-02-03T06:37:18.503Z,498
2023-02-03T06:38:23.094Z,498.4
2023-02-03T06:39:24.769Z,498.2
2023-02-03T06:40:28.578Z,498.7
2023-02-03T06:41:30.883Z,498.3
2023-02-03T06:42:32.764Z,497.8
2023-02-03T06:43:34.615Z,498.1
2023-02-03T06:44:36.468Z,498.1
2023-02-03T06:45:38.288Z,497.6
2023-02-03T06:46:40.169Z,497.4
2023-02-03T06:47:42.018Z,497.7
2023-02-03T06:48:43.870Z,497.6
2023-02-03T06:49:45.726Z,497.1
2023-02-03T06:50:49.384Z,498
2023-02-03T06:51:51.267Z,498.3
2023-02-03T06:52:53.031Z,498
2023-02-03T06:53:54.837Z,497.8
2023-02-03T06:54:56.601Z,497.5
2023-02-03T06:55:58.229Z,497.7
2023-02-03T06:57:00.114Z,497.5
2023-02-03T06:58:02.297Z,498.1
2023-02-03T06:59:04.104Z,497.7
2023-02-03T07:00:06.091Z,498
2023-02-03T07:01:08.357Z,497.8
2023-02-03T07:02:10.273Z,497.5
2023-02-03T07:03:12.227Z,497.2
2023-02-03T07:04:14.077Z,497.5
2023-02-03T07:05:16.038Z,497.9
2023-02-03T07:06:17.953Z,498
2023-02-03T07:07:19.672Z,497.9
2023-02-03T07:08:21.450Z,497.9
2023-02-03T07:09:23.369Z,497.9
2023-02-03T07:10:25.785Z,498.6
2023-02-03T07:11:27.759Z,498.1
2023-02-03T07:12:29.598Z,498
2023-02-03T07:13:31.458Z,497.6
2023-02-03T07:14:33.303Z,497.4
2023-02-03T07:15:35.381Z,497.4
2023-02-03T07:16:37.337Z,497.5
2023-02-03T07:17:39.272Z,497.6
2023-02-03T07:18:48.881Z,497.2
2023-02-03T07:19:50.732Z,497
2023-02-03T07:20:52.588Z,496.9
2023-02-03T07:21:54.550Z,496.9
2023-02-03T07:22:56.393Z,496.5
2023-02-03T07:23:58.247Z,496.1
2023-02-03T07:24:59.983Z,496.1
2023-02-03T07:26:01.836Z,496.1
2023-02-03T07:27:05.189Z,495.5
2023-02-03T07:28:07.605Z,495.1
2023-02-03T07:29:09.440Z,495.9
2023-02-03T07:30:11.307Z,495.5
2023-02-03T07:31:13.635Z,494.7
2023-02-03T07:32:16.328Z,495.4
2023-02-03T07:33:18.173Z,494.5
2023-02-03T07:34:20.021Z,495.3
2023-02-03T07:35:21.977Z,495.1
2023-02-03T07:36:23.787Z,494.8
2023-02-03T07:37:25.712Z,494.4
2023-02-03T07:38:27.458Z,493.9
2023-02-03T07:39:29.267Z,494.6
2023-02-03T07:40:31.312Z,494.5
2023-02-03T07:41:33.185Z,494.5
2023-02-03T07:42:35.020Z,494.3
2023-02-03T07:43:36.970Z,494
2023-02-03T07:44:38.818Z,493.9
2023-02-03T07:45:40.667Z,494.2
2023-02-03T07:46:42.570Z,494.4
2023-02-03T07:47:44.488Z,494.6
2023-02-03T07:48:46.328Z,494.1
2023-02-03T07:49:48.288Z,493.4
2023-02-03T07:50:50.028Z,494.2
2023-02-03T07:51:51.848Z,494.1
2023-02-03T07:52:53.790Z,494.2
2023-02-03T07:53:55.573Z,494.3
2023-02-03T07:54:57.339Z,494.4
2023-02-03T07:55:59.095Z,494.7
2023-02-03T07:57:00.815Z,494.6
2023-02-03T07:58:03.907Z,494.9
2023-02-03T07:59:05.747Z,495.2
2023-02-03T08:00:07.591Z,495
2023-02-03T08:01:09.341Z,495
2023-02-03T08:02:11.296Z,495.2
2023-02-03T08:03:13.286Z,495
2023-02-03T08:04:15.037Z,494.5
2023-02-03T08:05:17.258Z,494.7
2023-02-03T08:06:19.067Z,495
2023-02-03T08:07:20.854Z,494.9
2023-02-03T08:08:22.625Z,495.1
2023-02-03T08:09:25.028Z,495
2023-02-03T08:10:28.566Z,495
2023-02-03T08:11:30.624Z,494.8
2023-02-03T08:12:32.372Z,494.7
2023-02-03T08:13:34.161Z,495.1
2023-02-03T08:14:35.972Z,494.9
2023-02-03T08:15:37.809Z,494.5
2023-02-03T08:16:39.618Z,494.7
2023-02-03T08:17:41.331Z,494
2023-02-03T08:18:43.144Z,494.3
2023-02-03T08:19:45.014Z,494.7
2023-02-03T08:20:46.807Z,494.7
2023-02-03T08:21:48.694Z,494.3
2023-02-03T08:22:50.553Z,494
2023-02-03T08:23:52.347Z,494.4
2023-02-03T08:24:54.186Z,494.8
2023-02-03T08:25:56.008Z,494
2023-02-03T08:26:57.658Z,493.6
2023-02-03T08:27:59.740Z,494.4
2023-02-03T08:29:01.665Z,493.8
2023-02-03T08:30:03.482Z,493.5
2023-02-03T08:31:05.814Z,493.9
2023-02-03T08:32:08.168Z,494.2
2023-02-03T08:33:09.985Z,493.6
2023-02-03T08:34:12.055Z,493.7
2023-02-03T08:35:13.880Z,493.2
2023-02-03T08:36:15.835Z,493.8
2023-02-03T08:37:18.302Z,493.1
2023-02-03T08:38:20.045Z,494.3
2023-02-03T08:39:21.727Z,493.2
2023-02-03T08:40:23.644Z,493.4
2023-02-03T08:41:25.485Z,493.5
2023-02-03T08:42:27.341Z,493.6
2023-02-03T08:43:29.307Z,493.4
2023-02-03T08:44:31.154Z,493.2
2023-02-03T08:45:33.618Z,493.1
2023-02-03T08:46:35.453Z,492.7
2023-02-03T08:47:37.234Z,492.8
2023-02-03T08:48:39.057Z,493.2
2023-02-03T08:49:40.948Z,492.6
2023-02-03T08:50:42.845Z,492.6
2023-02-03T08:51:45.628Z,492.7
2023-02-03T08:52:47.491Z,492
2023-02-03T08:53:49.357Z,491.9
2023-02-03T08:54:51.190Z,492.5
2023-02-03T08:55:53.158Z,492
2023-02-03T08:56:54.992Z,492.3
2023-02-03T08:57:56.844Z,491.7
2023-02-03T08:58:58.691Z,491.5
2023-02-03T09:00:00.656Z,491.8
2023-02-03T09:01:02.751Z,492.1
2023-02-03T09:02:04.758Z,492.3
2023-02-03T09:03:06.588Z,492.1
2023-02-03T09:04:08.391Z,492.3
2023-02-03T09:05:10.644Z,492.1
2023-02-03T09:06:12.646Z,492.1
2023-02-03T09:07:14.642Z,491.5
2023-02-03T09:08:16.467Z,492.2
2023-02-03T09:09:18.312Z,491.5
2023-02-03T09:10:20.137Z,491.6
2023-02-03T09:11:22.005Z,491.1
2023-02-03T09:12:23.963Z,491.4
2023-02-03T09:13:25.618Z,491
2023-02-03T09:14:27.461Z,491.4
2023-02-03T09:15:29.313Z,492
2023-02-03T09:16:31.649Z,491.9
2023-02-03T09:17:33.613Z,491.5
2023-02-03T09:18:35.433Z,491.5
2023-02-03T09:19:37.537Z,492.3
2023-02-03T09:20:40.042Z,493.1
2023-02-03T09:21:48.913Z,492.9
2023-02-03T09:22:51.883Z,493.2
2023-02-03T09:23:54.043Z,492.9
2023-02-03T09:24:55.894Z,493.3
2023-02-03T09:25:57.691Z,493.2
2023-02-03T09:26:59.502Z,493.7
2023-02-03T09:28:01.817Z,493.4
2023-02-03T09:29:03.704Z,493.7
2023-02-03T09:30:05.452Z,493.7
2023-02-03T09:31:07.544Z,493.4
2023-02-03T09:32:09.888Z,494.4
2023-02-03T09:33:11.716Z,493.7
2023-02-03T09:34:13.994Z,493.5
2023-02-03T09:35:15.764Z,493
2023-02-03T09:36:17.701Z,493
2023-02-03T09:37:19.617Z,492.8
2023-02-03T09:38:21.490Z,493.3
2023-02-03T09:39:23.429Z,493.2
2023-02-03T09:40:26.914Z,493.3
2023-02-03T09:41:29.075Z,492.8
2023-02-03T09:42:30.917Z,492.6
2023-02-03T09:43:32.891Z,492.6
2023-02-03T09:44:34.724Z,492.7
2023-02-03T09:45:36.853Z,492.7
2023-02-03T09:46:39.051Z,492.2
2023-02-03T09:47:40.808Z,492.8
2023-02-03T09:48:42.631Z,492.5
2023-02-03T09:49:44.460Z,492.8
2023-02-03T09:50:46.335Z,492.7
2023-02-03T09:51:48.324Z,493
2023-02-03T09:52:50.142Z,492.6
2023-02-03T09:53:51.906Z,493.2
2023-02-03T09:54:53.847Z,492.4
2023-02-03T09:55:55.672Z,493.3
2023-02-03T09:56:57.543Z,493
2023-02-03T09:57:59.400Z,492.8
2023-02-03T09:59:01.095Z,492.2
2023-02-03T10:00:03.006Z,492.7
2023-02-03T10:01:04.939Z,492.6
2023-02-03T10:02:07.134Z,493.1
2023-02-03T10:03:08.957Z,493.4
2023-02-03T10:04:10.796Z,493.2
2023-02-03T10:05:12.760Z,492.2
2023-02-03T10:06:14.706Z,492.7
2023-02-03T10:07:16.679Z,492.5
2023-02-03T10:08:18.603Z,492.7
2023-02-03T10:09:20.505Z,492.8
2023-02-03T10:10:22.388Z,493.1
2023-02-03T10:11:24.269Z,492.8
2023-02-03T10:12:26.109Z,493.1
2023-02-03T10:13:27.970Z,493.3
2023-02-03T10:14:29.842Z,493
2023-02-03T10:15:31.557Z,492.3
2023-02-03T10:16:33.814Z,493.3
2023-02-03T10:17:36.118Z,493
2023-02-03T10:18:37.922Z,492.8
2023-02-03T10:19:39.871Z,492.4
2023-02-03T10:20:42.341Z,492.6
2023-02-03T10:21:44.298Z,491.7
2023-02-03T10:22:46.624Z,492.3
2023-02-03T10:23:48.746Z,492.5
2023-02-03T10:24:50.676Z,492.6
2023-02-03T10:25:52.461Z,491.7
2023-02-03T10:26:54.299Z,491.5
2023-02-03T10:27:56.258Z,492
2023-02-03T10:28:58.120Z,492.1
2023-02-03T10:30:00.012Z,492.2
2023-02-03T10:31:02.351Z,492.4
2023-02-03T10:32:05.071Z,492.4
2023-02-03T10:33:07.104Z,492.8
2023-02-03T10:34:09.066Z,492.9
2023-02-03T10:35:10.924Z,492.8
2023-02-03T10:36:12.764Z,493.2
2023-02-03T10:37:14.721Z,493.3
2023-02-03T10:38:16.743Z,493.1
2023-02-03T10:39:19.095Z,493.3
2023-02-03T10:40:21.511Z,493.4
2023-02-03T10:41:23.466Z,493.3
2023-02-03T10:42:25.494Z,493.2
2023-02-03T10:43:27.263Z,493.5
2023-02-03T10:44:29.203Z,493.6
2023-02-03T10:45:31.046Z,494
2023-02-03T10:46:33.349Z,493.8
2023-02-03T10:47:35.354Z,493.7
2023-02-03T10:48:37.719Z,493.4
2023-02-03T10:49:39.580Z,493.2
2023-02-03T10:50:41.321Z,493.1
2023-02-03T10:51:43.182Z,493.3
2023-02-03T10:52:45.016Z,493.4
2023-02-03T10:53:47.070Z,493.9
2023-02-03T10:54:49.039Z,493.4
2023-02-03T10:55:50.800Z,493.4
2023-02-03T10:56:52.540Z,493.5
2023-02-03T10:57:54.280Z,493.3
2023-02-03T10:58:56.229Z,493.3
2023-02-03T10:59:58.084Z,493.2
2023-02-03T11:00:59.930Z,493.8
2023-02-03T11:02:02.150Z,493.2
2023-02-03T11:03:04.307Z,493.3
2023-02-03T11:04:06.307Z,493.7
2023-02-03T11:05:08.138Z,493.5
2023-02-03T11:06:10.082Z,493.1
2023-02-03T11:07:11.958Z,493.3
2023-02-03T11:08:13.795Z,492.9
2023-02-03T11:09:15.700Z,493.3
2023-02-03T11:10:17.702Z,493.3
2023-02-03T11:11:20.043Z,493.1
2023-02-03T11:12:21.917Z,493.4
2023-02-03T11:13:23.694Z,492.8
2023-02-03T11:14:25.616Z,492.8
2023-02-03T11:15:29.078Z,492.8
2023-02-03T11:16:31.048Z,493.2
2023-02-03T11:17:33.483Z,493.7
2023-02-03T11:18:35.365Z,493.7
2023-02-03T11:19:37.280Z,493.8
2023-02-03T11:20:39.284Z,493.8
2023-02-03T11:21:41.242Z,494.3
2023-02-03T11:22:43.049Z,494.4
2023-02-03T11:23:44.931Z,494.7
2023-02-03T11:24:46.905Z,494.5
2023-02-03T11:25:48.840Z,494.6
2023-02-03T11:26:50.788Z,494.7
2023-02-03T11:27:52.766Z,495.3
2023-02-03T11:28:54.477Z,495.3
2023-02-03T11:29:56.433Z,495.8
2023-02-03T11:30:58.753Z,495.5
2023-02-03T11:32:01.631Z,496.4
2023-02-03T11:33:03.527Z,496.1
2023-02-03T11:34:05.293Z,496.2
2023-02-03T11:35:07.120Z,496.5
2023-02-03T11:36:08.919Z,496.9
2023-02-03T11:37:10.812Z,496.6
2023-02-03T11:38:12.656Z,496.9
2023-02-03T11:39:14.518Z,497.3
2023-02-03T11:40:16.593Z,497.1
2023-02-03T11:41:18.519Z,497.1
2023-02-03T11:42:20.473Z,497.6
2023-02-03T11:43:22.324Z,497.3
2023-02-03T11:44:24.074Z,497.6
2023-02-03T11:45:25.935Z,497.9
2023-02-03T11:46:28.186Z,497.8
2023-02-03T11:47:30.135Z,498.2
2023-02-03T11:48:31.980Z,497.7
2023-02-03T11:49:33.842Z,498.6
2023-02-03T11:50:35.667Z,497.9
2023-02-03T11:51:37.543Z,498.2
2023-02-03T11:52:39.383Z,498.5
2023-02-03T11:53:58.095Z,498.6
2023-02-03T11:54:59.983Z,498.6
2023-02-03T11:56:01.851Z,498.7
2023-02-03T11:57:03.677Z,498.5
2023-02-03T11:58:05.639Z,499.1
2023-02-03T11:59:07.480Z,499.2
2023-02-03T12:00:09.350Z,499.5
2023-02-03T12:01:11.180Z,498.6
2023-02-03T12:02:13.028Z,498.7
2023-02-03T12:03:15.148Z,498.6
2023-02-03T12:04:17.265Z,498.5
2023-02-03T12:05:19.314Z,498.5
2023-02-03T12:06:21.089Z,498.2
2023-02-03T12:07:23.017Z,498.4
2023-02-03T12:08:24.854Z,497.4
2023-02-03T12:09:26.765Z,497.9
2023-02-03T12:10:30.379Z,498.4
2023-02-03T12:11:32.779Z,497.8
2023-02-03T12:12:34.708Z,498.5
2023-02-03T12:13:36.485Z,498.8
2023-02-03T12:14:38.169Z,498.5
2023-02-03T12:15:40.063Z,498.6
2023-02-03T12:16:41.893Z,497.9
2023-02-03T12:17:43.742Z,498.1
2023-02-03T12:18:45.605Z,498.1
2023-02-03T12:19:47.594Z,498.4
2023-02-03T12:20:49.339Z,498.7
2023-02-03T12:21:51.074Z,498
2023-02-03T12:22:52.919Z,498.5
2023-02-03T12:23:54.775Z,498.6
2023-02-03T12:24:56.602Z,498.5
2023-02-03T12:25:58.473Z,498.4
2023-02-03T12:27:00.645Z,498.6
2023-02-03T12:28:02.785Z,498.5
2023-02-03T12:29:04.716Z,498
2023-02-03T12:30:06.563Z,498.2
2023-02-03T12:31:09.174Z,497.7
2023-02-03T12:32:11.569Z,497.9
2023-02-03T12:33:13.346Z,498.1
2023-02-03T12:34:15.195Z,499
2023-02-03T12:35:17.046Z,498.7
2023-02-03T12:36:18.803Z,498.6
2023-02-03T12:37:20.652Z,498.8
2023-02-03T12:38:22.710Z,498.8
2023-02-03T12:39:24.659Z,499.4
2023-02-03T12:40:27.862Z,500
2023-02-03T12:41:29.888Z,500.1
2023-02-03T12:42:31.879Z,501.1
2023-02-03T12:43:33.586Z,500.1
2023-02-03T12:44:35.469Z,500.8
2023-02-03T12:45:37.690Z,501.1
2023-02-03T12:46:39.654Z,500.8
2023-02-03T12:47:41.616Z,501.1
2023-02-03T12:48:43.455Z,501.9
2023-02-03T12:49:45.222Z,501.4
2023-02-03T12:50:47.166Z,501.8
2023-02-03T12:51:49.100Z,502
2023-02-03T12:52:50.847Z,502.2
2023-02-03T12:53:52.695Z,502
2023-02-03T12:54:54.557Z,501.6
2023-02-03T12:55:56.730Z,501.4
2023-02-03T12:56:58.658Z,500.9
2023-02-03T12:58:00.758Z,501.5
2023-02-03T12:59:02.572Z,501
2023-02-03T13:00:04.535Z,501.3
2023-02-03T13:01:06.652Z,501.9
2023-02-03T13:02:08.761Z,501.3
2023-02-03T13:03:10.700Z,501.4
2023-02-03T13:04:12.542Z,500.6
2023-02-03T13:05:14.389Z,501.6
2023-02-03T13:06:16.244Z,501.6
2023-02-03T13:07:18.189Z,501.8
2023-02-03T13:08:20.028Z,501.4
2023-02-03T13:09:21.807Z,501.4
2023-02-03T13:10:23.651Z,501.5
2023-02-03T13:11:25.500Z,501.4
2023-02-03T13:12:27.337Z,501.7
2023-02-03T13:13:29.351Z,501.6
2023-02-03T13:14:31.165Z,501.6
2023-02-03T13:15:32.963Z,501.6
2023-02-03T13:16:35.195Z,501.5
2023-02-03T13:17:37.239Z,501.3
2023-02-03T13:18:39.255Z,501.5
2023-02-03T13:19:41.097Z,501.3
2023-02-03T13:20:42.950Z,502.2
2023-02-03T13:21:44.775Z,502
2023-02-03T13:22:46.677Z,501.9
2023-02-03T13:23:48.620Z,502.2